Green Valley, California
Current Conditions -  °F | °C
As of 11:51 AM on Friday 24 Oct 2014 (Local Time) from KVNY Reporting Station
Clear Clear  
Wind Chill: 85°   Ceiling: Unl
Heat Index: 85°   Visibility: 10mi
Dew Point: 37°   Wind: 7mph
Humidity: 18%   Direction: 140°SE
Pressure: 29.99"   Gusts: NA
Location:  34.446°N, 118.517°W
Report Text: KVNY 241851Z 14006KT 10SM CLR 29/03 A2999 RMK AO2 SLP148 T02940028
Loading
Personal Weather Stations






























Interactive Weather Map
Tropical Storm Tracking
New forecast layout! Learn more

10-Day Weather Forecast

Advertisements
Track Severe Weather on mobile